This is the latest recevied weather packets stored in our database for station/object K7VLL. If no packets are shown the sender has not sent any weather packets the latest 10 day(s).
| Time | Temp. | Humidity | Pressure | Rain* | Wind** | Luminosity | Snow |
|---|---|---|---|---|---|---|---|
| 1778430626 | 32.78° C | 10% | 1090.3 hPa | 0 mm | - | 490 W/m² | - |
| 1778428825 | 29.44° C | 12% | 1089.9 hPa | 0 mm | - | 70 W/m² | - |
| 1778427025 | 27.22° C | 16% | 1090 hPa | 0 mm | - | 96 W/m² | - |
| 1778425221 | 25° C | 18% | 1090.1 hPa | 0 mm | - | 42 W/m² | - |
| 1778423422 | 23.89° C | 19% | 1090.3 hPa | 0 mm | - | 35 W/m² | - |
| 1778421617 | 22.78° C | 22% | 1089.9 hPa | 0 mm | - | 73 W/m² | - |
| 1778419813 | 21.67° C | 25% | 1089.6 hPa | 0 mm | - | 39 W/m² | - |
| 1778418011 | 17.22° C | 28% | 1089.4 hPa | 0 mm | - | 19 W/m² | - |
| 1778416206 | 16.67° C | 29% | 1089 hPa | 0 mm | - | 2 W/m² | - |
| 1778414403 | 16.11° C | 31% | 1088.3 hPa | 0 mm | - | 0 W/m² | - |
| 1778412599 | 16.67° C | 28% | 1088.5 hPa | 0 mm | - | 0 W/m² | - |
| 1778410795 | 17.22° C | 26% | 1088.6 hPa | 0 mm | - | 0 W/m² | - |
| 1778408995 | 19.44° C | 24% | 1088.3 hPa | 0 mm | - | 0 W/m² | - |
| 1778407194 | 18.89° C | 25% | 1088.3 hPa | 0 mm | - | 0 W/m² | - |
| 1778405391 | 18.89° C | 23% | 1087.9 hPa | 0 mm | - | 0 W/m² | - |
| 1778403585 | 20° C | 26% | 1087.9 hPa | 0 mm | - | 0 W/m² | - |
| 1778401786 | 21.11° C | 24% | 1087.9 hPa | 0 mm | - | 0 W/m² | - |
| 1778399982 | 22.78° C | 18% | 1087.8 hPa | 0 mm | - | 0 W/m² | - |
| 1778398179 | 23.89° C | 19% | 1088 hPa | 0 mm | - | 0 W/m² | - |
| 1778396377 | 26.11° C | 17% | 1087.9 hPa | 0 mm | - | 0 W/m² | - |
| 1778394576 | 27.22° C | 13% | 1087.7 hPa | 0 mm | - | 0 W/m² | - |
| 1778392776 | 27.78° C | 12% | 1087.4 hPa | 0 mm | - | 0 W/m² | - |
| 1778390976 | 25.56° C | 14% | 1087.1 hPa | 0 mm | - | 0 W/m² | - |
| 1778389173 | 26.67° C | 13% | 1086.9 hPa | 0 mm | - | 0 W/m² | - |
| 1778387372 | 28.89° C | 11% | 1086.3 hPa | 0 mm | - | 0 W/m² | - |
* Rain latest hour (hover to see other rain measurements)
** Current wind speed in m/s (hover to see current wind gust speed)